Arlington, California
Current Conditions -  °F | °C
As of 11:53 PM on Friday 28 Nov 2014 (Local Time) from KRAL Reporting Station
Clear Clear  
Wind Chill: 56°   Ceiling: Unl
Heat Index: 56°   Visibility: 10mi
Dew Point: 32°   Wind: 6mph
Humidity: 40%   Direction: 60°ENE
Pressure: 29.91"   Gusts: NA
Location:  33.8878°N, 117.453°W
Report Text: KRAL 290753Z AUTO 06005KT 10SM CLR 13/00 A2991 RMK AO2 SLP115 T01330000 402830094
Loading
Personal Weather Stations






























Interactive Weather Map New forecast layout! Learn more

10-Day Weather Forecast

Advertisements
Track Severe Weather on mobile